Aérodrome :
LOGIN :

S'inscrire | Disclaimer

   EN    FR    IT 

 










Légende :    VFR   VFR Marginal   IFR   IFR Intensif   IFR Très Intensif
Visi : 
Plafond : 
>= 8 km
>= 3000ft
5 à 8 km
1000 à 3000 ft
1500m à 5 km
500 à 1000 ft
800 à 1500m
200 à 500 ft
< 800m
< 200 ft
Symboles :   Orages  Brouillard  Fortes neiges  Fortes précipitations  Vent > 20 kt
SIGMETs :   Divers  Orages  Givrage  Turbulence  Onde Orograph.  Cendres Volcan.






- Altitude de l'aérodrome : 74 ft
- Code IATA : LRH


LFBH - La Rochelle Ile de Ré

DERNIER METAR :
  • 182100Z AUTO 05013KT CAVOK 06/02 Q1027 TEMPO 04015G25KT

METARs EXPIRÉS :
  • 182030Z AUTO 06014KT CAVOK 06/03 Q1026 TEMPO 04015G25KT
  • 182000Z AUTO 06013KT CAVOK 06/03 Q1026 TEMPO 04015G25KT
  • 181930Z AUTO 06012KT CAVOK 07/03 Q1025 TEMPO 04015G25KT
  • 181900Z AUTO 06013KT CAVOK 07/03 Q1025 TEMPO 04015G25KT
  • 181830Z AUTO 06013KT CAVOK 07/03 Q1025 TEMPO 04015G25KT

TAF TAF LFBH
Valide du 18 à 18h jusqu'au 19 à 18h UTC


181700Z 1818/1918 06015KT CAVOK
TEMPO 1818/1918 04015G25KT
PROB40
TEMPO 1912/1918 BKN020
ATIS : +33 5 46 00 13 92



MET'MAP, la Météo Aéronautique d'un coup d'oeil ! - Copyright ORBIFLY Décembre 2007 - Disclaimer

ORBIFLY MET'MAP TEAM :

Programmation & Développement : Alexandra Zaïnal
Sur une idée originale de : Baudouin d'Aumeries
Assistance à la programmation : Marc-Olivier Méhu
Soutien technique & logistique : Manuel Goepfert

Contact : metmap@orbifly.com




SOURCES & CREDITS :

   NOAA